Página principal
METAR-TAF:

METAR-TAF

Aeroportos :

Leuchars, Escócia

latitude: 56-23N, longitude: 002-52W, altura: 12 m

Observação actual do tempo

O boletim foi feito há 57 minutos, às 09:50 UTC
Vento 15 kt de sul
Temperatura 7°C
Humidade 87%
Pressão 1020 hPa
Visibilidade 10 km ou mais
Nuvens fragmentadasa uma altura de 3800 ft
Nuvens fragmentadasa uma altura de 8000 ft

METAR: EGQL 120950Z 17015KT 9999 BKN038 BKN080 07/05 Q1020 BLU

Hora: 10:47 (10:47 UTC)

Previsão

O boletim foi feito há 3 horas e 35 minutos, às 07:12 UTC
Previsão válida de 12 às 09 UTC a 12 às 18 UTC
Vento 15 kt de su-sudeste com rajadas de 25 kt
Visibilidade 10 km ou mais
Nuvens dispersasa uma altura de 3000 ft

TAF: EGQL 120712Z 1209/1218 15015G25KT 9999 SCT030

Observações e previsões do tempo de mais de 4000 aeroportos (mensagens METAR e TAF).

As estações disponíveis são os pontos amarelos e vermelhos sobre o mapa.

Mova o rato sobre o mapa para ver o nome da estação.

Depois clique no ponto para visualizar as observações e previsões meteorológicas.

Para alterar o mapa : clique nos botões verdes com uma cruz preta para aumentar o zoom; no botão verde com uma pitada de zoom; ou nas setas verdes para mapas adjacentes.


METAR-TAF: